sensor_id;sensor_type;location;lat;lon;timestamp;temperature;humidity
78479;SHT31;67769;51.972;5.668;2023-06-04T00:00:51;17.3;43.7
78479;SHT31;67769;51.972;5.668;2023-06-04T00:03:23;17.3;43.9
78479;SHT31;67769;51.972;5.668;2023-06-04T00:05:53;17.2;43.8
78479;SHT31;67769;51.972;5.668;2023-06-04T00:08:22;17.2;44.0
78479;SHT31;67769;51.972;5.668;2023-06-04T00:10:54;17.2;43.9
78479;SHT31;67769;51.972;5.668;2023-06-04T00:13:24;17.1;44.2
78479;SHT31;67769;51.972;5.668;2023-06-04T00:15:54;17.1;43.9
78479;SHT31;67769;51.972;5.668;2023-06-04T00:18:24;17.0;44.1
78479;SHT31;67769;51.972;5.668;2023-06-04T00:20:53;17.0;44.1
78479;SHT31;67769;51.972;5.668;2023-06-04T00:23:23;17.0;44.1
78479;SHT31;67769;51.972;5.668;2023-06-04T00:25:52;16.9;44.2
78479;SHT31;67769;51.972;5.668;2023-06-04T00:28:22;16.9;44.2
78479;SHT31;67769;51.972;5.668;2023-06-04T00:30:52;16.8;44.1
78479;SHT31;67769;51.972;5.668;2023-06-04T00:33:22;16.8;44.1
78479;SHT31;67769;51.972;5.668;2023-06-04T00:35:52;16.8;44.2
78479;SHT31;67769;51.972;5.668;2023-06-04T00:38:21;16.8;44.3
78479;SHT31;67769;51.972;5.668;2023-06-04T00:40:51;16.7;44.3
78479;SHT31;67769;51.972;5.668;2023-06-04T00:43:21;16.7;44.3
78479;SHT31;67769;51.972;5.668;2023-06-04T00:45:53;16.7;44.3
78479;SHT31;67769;51.972;5.668;2023-06-04T00:48:23;16.6;44.3
78479;SHT31;67769;51.972;5.668;2023-06-04T00:50:55;16.6;44.4
78479;SHT31;67769;51.972;5.668;2023-06-04T00:53:25;16.6;44.3
78479;SHT31;67769;51.972;5.668;2023-06-04T00:55:55;16.5;44.4
78479;SHT31;67769;51.972;5.668;2023-06-04T00:58:24;16.5;44.5
78479;SHT31;67769;51.972;5.668;2023-06-04T01:00:56;16.5;44.6
78479;SHT31;67769;51.972;5.668;2023-06-04T01:03:32;16.4;44.7
78479;SHT31;67769;51.972;5.668;2023-06-04T01:06:13;16.4;44.8
78479;SHT31;67769;51.972;5.668;2023-06-04T01:08:49;16.4;45.0
78479;SHT31;67769;51.972;5.668;2023-06-04T01:11:32;16.3;44.9
78479;SHT31;67769;51.972;5.668;2023-06-04T01:14:03;16.3;44.9
78479;SHT31;67769;51.972;5.668;2023-06-04T01:16:39;16.3;44.9
78479;SHT31;67769;51.972;5.668;2023-06-04T01:19:29;16.2;45.1
78479;SHT31;67769;51.972;5.668;2023-06-04T01:22:04;16.2;45.2
78479;SHT31;67769;51.972;5.668;2023-06-04T01:24:43;16.1;45.2
78479;SHT31;67769;51.972;5.668;2023-06-04T01:27:17;16.1;45.5
78479;SHT31;67769;51.972;5.668;2023-06-04T01:29:47;16.1;45.4
78479;SHT31;67769;51.972;5.668;2023-06-04T01:32:19;16.0;45.5
78479;SHT31;67769;51.972;5.668;2023-06-04T01:34:49;16.0;45.6
78479;SHT31;67769;51.972;5.668;2023-06-04T01:37:20;16.0;45.6
78479;SHT31;67769;51.972;5.668;2023-06-04T01:39:51;15.9;45.6
78479;SHT31;67769;51.972;5.668;2023-06-04T01:42:20;15.9;45.5
78479;SHT31;67769;51.972;5.668;2023-06-04T01:44:50;15.9;45.7
78479;SHT31;67769;51.972;5.668;2023-06-04T01:47:19;15.8;45.7
78479;SHT31;67769;51.972;5.668;2023-06-04T01:49:51;15.8;45.6
78479;SHT31;67769;51.972;5.668;2023-06-04T01:52:21;15.8;45.7
78479;SHT31;67769;51.972;5.668;2023-06-04T01:54:51;15.7;45.8
78479;SHT31;67769;51.972;5.668;2023-06-04T01:57:21;15.7;45.9
78479;SHT31;67769;51.972;5.668;2023-06-04T01:59:51;15.7;46.3
78479;SHT31;67769;51.972;5.668;2023-06-04T02:02:21;15.6;46.2
78479;SHT31;67769;51.972;5.668;2023-06-04T02:04:52;15.6;46.2
78479;SHT31;67769;51.972;5.668;2023-06-04T02:07:22;15.6;46.4
78479;SHT31;67769;51.972;5.668;2023-06-04T02:09:55;15.6;46.1
78479;SHT31;67769;51.972;5.668;2023-06-04T02:12:26;15.5;46.3
78479;SHT31;67769;51.972;5.668;2023-06-04T02:14:56;15.5;46.3
78479;SHT31;67769;51.972;5.668;2023-06-04T02:17:25;15.5;46.2
78479;SHT31;67769;51.972;5.668;2023-06-04T02:19:55;15.4;46.4
78479;SHT31;67769;51.972;5.668;2023-06-04T02:22:25;15.4;46.3
78479;SHT31;67769;51.972;5.668;2023-06-04T02:24:55;15.4;46.6
78479;SHT31;67769;51.972;5.668;2023-06-04T02:27:26;15.4;46.8
78479;SHT31;67769;51.972;5.668;2023-06-04T02:29:56;15.4;46.6
78479;SHT31;67769;51.972;5.668;2023-06-04T02:32:26;15.3;46.4
78479;SHT31;67769;51.972;5.668;2023-06-04T02:34:57;15.3;46.6
78479;SHT31;67769;51.972;5.668;2023-06-04T02:37:28;15.3;46.7
78479;SHT31;67769;51.972;5.668;2023-06-04T02:39:58;15.3;46.6
78479;SHT31;67769;51.972;5.668;2023-06-04T02:42:28;15.3;46.7
78479;SHT31;67769;51.972;5.668;2023-06-04T02:44:57;15.2;46.5
78479;SHT31;67769;51.972;5.668;2023-06-04T02:47:27;15.2;46.4
78479;SHT31;67769;51.972;5.668;2023-06-04T02:49:57;15.2;46.6
78479;SHT31;67769;51.972;5.668;2023-06-04T02:52:26;15.2;46.6
78479;SHT31;67769;51.972;5.668;2023-06-04T02:54:57;15.1;46.6
78479;SHT31;67769;51.972;5.668;2023-06-04T02:57:27;15.1;46.7
78479;SHT31;67769;51.972;5.668;2023-06-04T02:59:58;15.1;46.7
78479;SHT31;67769;51.972;5.668;2023-06-04T03:02:30;15.1;47.0
78479;SHT31;67769;51.972;5.668;2023-06-04T03:05:00;15.1;47.0
78479;SHT31;67769;51.972;5.668;2023-06-04T03:07:29;15.1;46.7
78479;SHT31;67769;51.972;5.668;2023-06-04T03:09:59;15.1;47.0
78479;SHT31;67769;51.972;5.668;2023-06-04T03:12:29;15.0;47.1
78479;SHT31;67769;51.972;5.668;2023-06-04T03:14:58;15.0;47.2
78479;SHT31;67769;51.972;5.668;2023-06-04T03:17:28;15.0;47.4
78479;SHT31;67769;51.972;5.668;2023-06-04T03:19:59;15.0;47.6
78479;SHT31;67769;51.972;5.668;2023-06-04T03:22:28;15.0;47.5
78479;SHT31;67769;51.972;5.668;2023-06-04T03:25:00;15.0;47.4
78479;SHT31;67769;51.972;5.668;2023-06-04T03:27:31;15.0;47.4
78479;SHT31;67769;51.972;5.668;2023-06-04T03:30:02;15.0;47.5
78479;SHT31;67769;51.972;5.668;2023-06-04T03:32:32;15.0;47.8
78479;SHT31;67769;51.972;5.668;2023-06-04T03:35:01;15.0;47.9
78479;SHT31;67769;51.972;5.668;2023-06-04T03:37:32;15.0;48.2
78479;SHT31;67769;51.972;5.668;2023-06-04T03:40:02;15.1;48.3
78479;SHT31;67769;51.972;5.668;2023-06-04T03:42:33;15.1;48.2
78479;SHT31;67769;51.972;5.668;2023-06-04T03:45:03;15.1;48.1
78479;SHT31;67769;51.972;5.668;2023-06-04T03:47:33;15.1;48.3
78479;SHT31;67769;51.972;5.668;2023-06-04T03:50:03;15.1;48.3
78479;SHT31;67769;51.972;5.668;2023-06-04T03:52:32;15.1;48.3
78479;SHT31;67769;51.972;5.668;2023-06-04T03:55:02;15.1;48.0
78479;SHT31;67769;51.972;5.668;2023-06-04T03:57:32;15.1;48.0
78479;SHT31;67769;51.972;5.668;2023-06-04T04:00:03;15.1;48.1
78479;SHT31;67769;51.972;5.668;2023-06-04T04:02:33;15.1;48.2
78479;SHT31;67769;51.972;5.668;2023-06-04T04:05:02;15.1;48.2
78479;SHT31;67769;51.972;5.668;2023-06-04T04:07:32;15.1;48.3
78479;SHT31;67769;51.972;5.668;2023-06-04T04:10:03;15.1;48.5
78479;SHT31;67769;51.972;5.668;2023-06-04T04:12:33;15.1;48.6
78479;SHT31;67769;51.972;5.668;2023-06-04T04:15:03;15.1;48.7
78479;SHT31;67769;51.972;5.668;2023-06-04T04:17:33;15.1;48.8
78479;SHT31;67769;51.972;5.668;2023-06-04T04:20:02;15.1;48.4
78479;SHT31;67769;51.972;5.668;2023-06-04T04:22:33;15.1;48.4
78479;SHT31;67769;51.972;5.668;2023-06-04T04:25:03;15.1;48.7
78479;SHT31;67769;51.972;5.668;2023-06-04T04:27:35;15.1;48.5
78479;SHT31;67769;51.972;5.668;2023-06-04T04:30:08;15.1;48.4
78479;SHT31;67769;51.972;5.668;2023-06-04T04:32:41;15.1;48.8
78479;SHT31;67769;51.972;5.668;2023-06-04T04:35:16;15.1;48.9
78479;SHT31;67769;51.972;5.668;2023-06-04T04:37:46;15.1;48.9
78479;SHT31;67769;51.972;5.668;2023-06-04T04:40:15;15.1;49.3
78479;SHT31;67769;51.972;5.668;2023-06-04T04:42:45;15.1;49.5
78479;SHT31;67769;51.972;5.668;2023-06-04T04:45:15;15.1;49.8
78479;SHT31;67769;51.972;5.668;2023-06-04T04:47:45;15.2;49.9
78479;SHT31;67769;51.972;5.668;2023-06-04T04:50:14;15.3;50.1
78479;SHT31;67769;51.972;5.668;2023-06-04T04:52:44;15.5;49.8
78479;SHT31;67769;51.972;5.668;2023-06-04T04:55:16;15.7;49.1
78479;SHT31;67769;51.972;5.668;2023-06-04T04:57:45;15.9;48.8
78479;SHT31;67769;51.972;5.668;2023-06-04T05:00:16;16.0;48.6
78479;SHT31;67769;51.972;5.668;2023-06-04T05:02:46;16.1;48.0
78479;SHT31;67769;51.972;5.668;2023-06-04T05:05:16;16.2;47.7
78479;SHT31;67769;51.972;5.668;2023-06-04T05:07:46;16.3;47.7
78479;SHT31;67769;51.972;5.668;2023-06-04T05:10:16;16.4;47.4
78479;SHT31;67769;51.972;5.668;2023-06-04T05:12:53;16.4;47.3
78479;SHT31;67769;51.972;5.668;2023-06-04T05:15:23;16.5;47.3
78479;SHT31;67769;51.972;5.668;2023-06-04T05:17:54;16.6;46.9
78479;SHT31;67769;51.972;5.668;2023-06-04T05:20:23;16.6;47.3
78479;SHT31;67769;51.972;5.668;2023-06-04T05:22:53;16.6;47.6
78479;SHT31;67769;51.972;5.668;2023-06-04T05:25:23;16.7;47.0
78479;SHT31;67769;51.972;5.668;2023-06-04T05:27:56;16.7;47.2
78479;SHT31;67769;51.972;5.668;2023-06-04T05:30:26;16.8;47.5
78479;SHT31;67769;51.972;5.668;2023-06-04T05:32:57;16.9;47.5
78479;SHT31;67769;51.972;5.668;2023-06-04T05:35:27;17.1;47.5
78479;SHT31;67769;51.972;5.668;2023-06-04T05:37:57;17.4;47.1
78479;SHT31;67769;51.972;5.668;2023-06-04T05:40:28;17.8;46.3
78479;SHT31;67769;51.972;5.668;2023-06-04T05:42:57;18.2;45.2
78479;SHT31;67769;51.972;5.668;2023-06-04T05:45:29;18.6;44.3
78479;SHT31;67769;51.972;5.668;2023-06-04T05:47:59;19.0;43.5
78479;SHT31;67769;51.972;5.668;2023-06-04T05:50:28;19.4;42.7
78479;SHT31;67769;51.972;5.668;2023-06-04T05:52:58;19.8;42.4
78479;SHT31;67769;51.972;5.668;2023-06-04T05:55:28;20.2;41.8
78479;SHT31;67769;51.972;5.668;2023-06-04T05:57:58;20.5;40.9
78479;SHT31;67769;51.972;5.668;2023-06-04T06:00:27;20.9;40.2
78479;SHT31;67769;51.972;5.668;2023-06-04T06:02:57;21.2;39.8
78479;SHT31;67769;51.972;5.668;2023-06-04T06:05:27;21.5;39.4
78479;SHT31;67769;51.972;5.668;2023-06-04T06:07:58;21.9;37.6
78479;SHT31;67769;51.972;5.668;2023-06-04T06:10:29;22.1;37.0
78479;SHT31;67769;51.972;5.668;2023-06-04T06:12:59;22.4;37.0
78479;SHT31;67769;51.972;5.668;2023-06-04T06:15:29;22.6;36.2
78479;SHT31;67769;51.972;5.668;2023-06-04T06:18:00;22.8;36.1
78479;SHT31;67769;51.972;5.668;2023-06-04T06:20:30;22.9;36.0
78479;SHT31;67769;51.972;5.668;2023-06-04T06:23:07;23.1;36.2
78479;SHT31;67769;51.972;5.668;2023-06-04T06:25:37;23.3;35.1
78479;SHT31;67769;51.972;5.668;2023-06-04T06:28:09;23.5;34.9
78479;SHT31;67769;51.972;5.668;2023-06-04T06:30:38;23.8;35.1
78479;SHT31;67769;51.972;5.668;2023-06-04T06:33:08;24.0;35.1
78479;SHT31;67769;51.972;5.668;2023-06-04T06:35:40;24.2;34.8
78479;SHT31;67769;51.972;5.668;2023-06-04T06:38:14;24.4;34.9
78479;SHT31;67769;51.972;5.668;2023-06-04T06:40:44;24.6;33.7
78479;SHT31;67769;51.972;5.668;2023-06-04T06:43:14;24.8;33.5
78479;SHT31;67769;51.972;5.668;2023-06-04T06:45:43;25.0;33.9
78479;SHT31;67769;51.972;5.668;2023-06-04T06:48:15;25.2;33.5
78479;SHT31;67769;51.972;5.668;2023-06-04T06:50:44;25.5;33.0
78479;SHT31;67769;51.972;5.668;2023-06-04T06:53:14;25.7;33.0
78479;SHT31;67769;51.972;5.668;2023-06-04T06:55:44;25.9;32.7
78479;SHT31;67769;51.972;5.668;2023-06-04T06:58:13;26.1;32.1
78479;SHT31;67769;51.972;5.668;2023-06-04T07:00:43;26.4;31.1
78479;SHT31;67769;51.972;5.668;2023-06-04T07:03:13;26.6;31.0
78479;SHT31;67769;51.972;5.668;2023-06-04T07:05:42;26.9;29.8
78479;SHT31;67769;51.972;5.668;2023-06-04T07:08:12;27.1;30.1
78479;SHT31;67769;51.972;5.668;2023-06-04T07:10:43;27.2;29.9
78479;SHT31;67769;51.972;5.668;2023-06-04T07:13:15;27.4;29.8
78479;SHT31;67769;51.972;5.668;2023-06-04T07:15:45;27.6;29.4
78479;SHT31;67769;51.972;5.668;2023-06-04T07:18:14;27.8;29.5
78479;SHT31;67769;51.972;5.668;2023-06-04T07:20:44;27.9;28.3
78479;SHT31;67769;51.972;5.668;2023-06-04T07:23:14;28.1;27.8
78479;SHT31;67769;51.972;5.668;2023-06-04T07:25:44;28.2;28.2
78479;SHT31;67769;51.972;5.668;2023-06-04T07:28:15;28.4;26.7
78479;SHT31;67769;51.972;5.668;2023-06-04T07:30:45;28.5;27.1
78479;SHT31;67769;51.972;5.668;2023-06-04T07:33:15;28.6;26.8
78479;SHT31;67769;51.972;5.668;2023-06-04T07:35:45;28.8;26.1
78479;SHT31;67769;51.972;5.668;2023-06-04T07:38:14;29.0;26.7
78479;SHT31;67769;51.972;5.668;2023-06-04T07:40:45;29.1;26.4
78479;SHT31;67769;51.972;5.668;2023-06-04T07:43:15;29.2;26.6
78479;SHT31;67769;51.972;5.668;2023-06-04T07:45:46;29.4;26.4
78479;SHT31;67769;51.972;5.668;2023-06-04T07:48:16;29.6;26.4
78479;SHT31;67769;51.972;5.668;2023-06-04T07:50:46;29.7;24.5
78479;SHT31;67769;51.972;5.668;2023-06-04T07:53:15;29.9;25.3
78479;SHT31;67769;51.972;5.668;2023-06-04T07:55:45;30.0;24.7
78479;SHT31;67769;51.972;5.668;2023-06-04T07:58:15;30.1;24.9
78479;SHT31;67769;51.972;5.668;2023-06-04T08:00:44;30.2;24.4
78479;SHT31;67769;51.972;5.668;2023-06-04T08:03:14;30.3;22.9
78479;SHT31;67769;51.972;5.668;2023-06-04T08:05:44;30.4;23.0
78479;SHT31;67769;51.972;5.668;2023-06-04T08:08:14;30.5;23.1
78479;SHT31;67769;51.972;5.668;2023-06-04T08:10:43;30.6;23.1
78479;SHT31;67769;51.972;5.668;2023-06-04T08:13:13;30.7;22.0
78479;SHT31;67769;51.972;5.668;2023-06-04T08:15:43;30.8;22.1
78479;SHT31;67769;51.972;5.668;2023-06-04T08:18:13;30.9;21.8
78479;SHT31;67769;51.972;5.668;2023-06-04T08:20:43;31.0;21.7
78479;SHT31;67769;51.972;5.668;2023-06-04T08:23:13;31.1;21.4
78479;SHT31;67769;51.972;5.668;2023-06-04T08:25:43;31.2;21.6
78479;SHT31;67769;51.972;5.668;2023-06-04T08:28:15;31.3;21.8
78479;SHT31;67769;51.972;5.668;2023-06-04T08:30:46;31.4;22.2
78479;SHT31;67769;51.972;5.668;2023-06-04T08:33:16;31.6;22.4
78479;SHT31;67769;51.972;5.668;2023-06-04T08:35:45;31.7;21.2
78479;SHT31;67769;51.972;5.668;2023-06-04T08:38:15;31.9;19.9
78479;SHT31;67769;51.972;5.668;2023-06-04T08:40:45;32.0;20.0
78479;SHT31;67769;51.972;5.668;2023-06-04T08:43:16;32.1;20.1
78479;SHT31;67769;51.972;5.668;2023-06-04T08:45:49;32.1;19.9
78479;SHT31;67769;51.972;5.668;2023-06-04T08:48:22;32.2;19.5
78479;SHT31;67769;51.972;5.668;2023-06-04T08:50:55;32.2;19.0
78479;SHT31;67769;51.972;5.668;2023-06-04T08:53:26;32.3;19.6
78479;SHT31;67769;51.972;5.668;2023-06-04T08:55:56;32.3;19.0
78479;SHT31;67769;51.972;5.668;2023-06-04T08:58:31;32.4;19.7
78479;SHT31;67769;51.972;5.668;2023-06-04T09:01:03;32.5;19.4
78479;SHT31;67769;51.972;5.668;2023-06-04T09:03:33;32.5;19.4
78479;SHT31;67769;51.972;5.668;2023-06-04T09:06:07;32.6;18.9
78479;SHT31;67769;51.972;5.668;2023-06-04T09:08:39;32.6;19.7
78479;SHT31;67769;51.972;5.668;2023-06-04T09:11:15;32.7;20.0
78479;SHT31;67769;51.972;5.668;2023-06-04T09:13:47;32.7;17.6
78479;SHT31;67769;51.972;5.668;2023-06-04T09:16:17;32.8;18.0
78479;SHT31;67769;51.972;5.668;2023-06-04T09:18:47;32.8;18.3
78479;SHT31;67769;51.972;5.668;2023-06-04T09:21:17;32.8;17.7
78479;SHT31;67769;51.972;5.668;2023-06-04T09:23:49;32.7;17.5
78479;SHT31;67769;51.972;5.668;2023-06-04T09:26:18;32.6;18.2
78479;SHT31;67769;51.972;5.668;2023-06-04T09:28:48;32.6;19.5
78479;SHT31;67769;51.972;5.668;2023-06-04T09:31:20;32.5;18.7
78479;SHT31;67769;51.972;5.668;2023-06-04T09:33:54;32.5;18.2
78479;SHT31;67769;51.972;5.668;2023-06-04T09:36:31;32.5;18.3
78479;SHT31;67769;51.972;5.668;2023-06-04T09:39:03;32.4;17.9
78479;SHT31;67769;51.972;5.668;2023-06-04T09:41:33;32.4;18.2
78479;SHT31;67769;51.972;5.668;2023-06-04T09:44:04;32.3;18.2
78479;SHT31;67769;51.972;5.668;2023-06-04T09:46:38;32.3;17.3
78479;SHT31;67769;51.972;5.668;2023-06-04T09:49:07;32.3;17.6
78479;SHT31;67769;51.972;5.668;2023-06-04T09:51:48;32.2;18.0
78479;SHT31;67769;51.972;5.668;2023-06-04T09:54:18;32.2;17.6
78479;SHT31;67769;51.972;5.668;2023-06-04T09:56:48;32.2;17.7
78479;SHT31;67769;51.972;5.668;2023-06-04T09:59:18;32.2;17.5
78479;SHT31;67769;51.972;5.668;2023-06-04T10:01:48;32.1;17.6
78479;SHT31;67769;51.972;5.668;2023-06-04T10:04:21;32.1;17.6
78479;SHT31;67769;51.972;5.668;2023-06-04T10:06:52;32.1;17.6
78479;SHT31;67769;51.972;5.668;2023-06-04T10:09:27;32.1;17.8
78479;SHT31;67769;51.972;5.668;2023-06-04T10:11:59;32.1;17.5
78479;SHT31;67769;51.972;5.668;2023-06-04T10:14:38;32.1;17.3
78479;SHT31;67769;51.972;5.668;2023-06-04T10:17:12;32.1;17.6
78479;SHT31;67769;51.972;5.668;2023-06-04T10:19:43;32.1;16.9
78479;SHT31;67769;51.972;5.668;2023-06-04T10:22:15;32.1;17.9
78479;SHT31;67769;51.972;5.668;2023-06-04T10:24:45;32.1;17.6
78479;SHT31;67769;51.972;5.668;2023-06-04T10:27:19;32.1;17.7
78479;SHT31;67769;51.972;5.668;2023-06-04T10:29:49;32.1;17.9
78479;SHT31;67769;51.972;5.668;2023-06-04T10:32:20;32.0;18.2
78479;SHT31;67769;51.972;5.668;2023-06-04T10:34:49;32.0;17.6
78479;SHT31;67769;51.972;5.668;2023-06-04T10:37:23;32.1;17.5
78479;SHT31;67769;51.972;5.668;2023-06-04T10:39:55;32.1;17.5
78479;SHT31;67769;51.972;5.668;2023-06-04T10:42:26;32.1;17.4
78479;SHT31;67769;51.972;5.668;2023-06-04T10:45:01;32.1;17.7
78479;SHT31;67769;51.972;5.668;2023-06-04T10:47:31;32.0;17.8
78479;SHT31;67769;51.972;5.668;2023-06-04T10:50:13;32.0;17.6
78479;SHT31;67769;51.972;5.668;2023-06-04T10:52:53;32.0;17.5
78479;SHT31;67769;51.972;5.668;2023-06-04T10:55:24;32.0;18.7
78479;SHT31;67769;51.972;5.668;2023-06-04T10:57:55;32.0;18.2
78479;SHT31;67769;51.972;5.668;2023-06-04T11:00:36;32.0;18.1
78479;SHT31;67769;51.972;5.668;2023-06-04T11:03:07;31.9;18.2
78479;SHT31;67769;51.972;5.668;2023-06-04T11:05:38;31.9;18.1
78479;SHT31;67769;51.972;5.668;2023-06-04T11:08:09;31.9;18.3
78479;SHT31;67769;51.972;5.668;2023-06-04T11:10:41;31.9;18.8
78479;SHT31;67769;51.972;5.668;2023-06-04T11:13:11;31.9;18.7
78479;SHT31;67769;51.972;5.668;2023-06-04T11:15:44;31.9;18.4
78479;SHT31;67769;51.972;5.668;2023-06-04T11:18:17;31.9;18.4
78479;SHT31;67769;51.972;5.668;2023-06-04T11:20:49;31.9;18.2
78479;SHT31;67769;51.972;5.668;2023-06-04T11:23:20;31.9;18.5
78479;SHT31;67769;51.972;5.668;2023-06-04T11:25:52;31.9;18.7
78479;SHT31;67769;51.972;5.668;2023-06-04T11:28:23;31.9;18.6
78479;SHT31;67769;51.972;5.668;2023-06-04T11:30:59;31.9;18.5
78479;SHT31;67769;51.972;5.668;2023-06-04T11:33:40;31.8;18.6
78479;SHT31;67769;51.972;5.668;2023-06-04T11:36:07;31.8;18.9
78479;SHT31;67769;51.972;5.668;2023-06-04T11:38:37;31.8;19.8
78479;SHT31;67769;51.972;5.668;2023-06-04T11:41:07;31.7;19.5
78479;SHT31;67769;51.972;5.668;2023-06-04T11:43:37;31.7;19.3
78479;SHT31;67769;51.972;5.668;2023-06-04T11:46:10;31.7;19.9
78479;SHT31;67769;51.972;5.668;2023-06-04T11:48:41;31.7;19.0
78479;SHT31;67769;51.972;5.668;2023-06-04T11:51:12;31.7;18.9
78479;SHT31;67769;51.972;5.668;2023-06-04T11:53:42;31.7;19.2
78479;SHT31;67769;51.972;5.668;2023-06-04T11:56:13;31.6;19.8
78479;SHT31;67769;51.972;5.668;2023-06-04T11:58:43;31.6;20.0
78479;SHT31;67769;51.972;5.668;2023-06-04T12:01:14;31.5;19.5
78479;SHT31;67769;51.972;5.668;2023-06-04T12:03:44;31.5;20.0
78479;SHT31;67769;51.972;5.668;2023-06-04T12:06:16;31.4;20.1
78479;SHT31;67769;51.972;5.668;2023-06-04T12:08:47;31.4;20.1
78479;SHT31;67769;51.972;5.668;2023-06-04T12:11:28;31.4;19.8
78479;SHT31;67769;51.972;5.668;2023-06-04T12:14:00;31.4;19.5
78479;SHT31;67769;51.972;5.668;2023-06-04T12:16:30;31.4;19.3
78479;SHT31;67769;51.972;5.668;2023-06-04T12:19:08;31.3;19.6
78479;SHT31;67769;51.972;5.668;2023-06-04T12:21:39;31.3;19.5
78479;SHT31;67769;51.972;5.668;2023-06-04T12:24:11;31.3;19.8
78479;SHT31;67769;51.972;5.668;2023-06-04T12:26:42;31.2;19.9
78479;SHT31;67769;51.972;5.668;2023-06-04T12:29:14;31.2;19.7
78479;SHT31;67769;51.972;5.668;2023-06-04T12:31:45;31.2;19.7
78479;SHT31;67769;51.972;5.668;2023-06-04T12:34:15;31.2;19.9
78479;SHT31;67769;51.972;5.668;2023-06-04T12:36:45;31.2;19.7
78479;SHT31;67769;51.972;5.668;2023-06-04T12:39:14;31.1;19.8
78479;SHT31;67769;51.972;5.668;2023-06-04T12:41:46;31.1;19.6
78479;SHT31;67769;51.972;5.668;2023-06-04T12:44:16;31.1;20.3
78479;SHT31;67769;51.972;5.668;2023-06-04T12:46:47;31.0;20.2
78479;SHT31;67769;51.972;5.668;2023-06-04T12:49:19;31.0;19.5
78479;SHT31;67769;51.972;5.668;2023-06-04T12:51:48;30.9;19.9
78479;SHT31;67769;51.972;5.668;2023-06-04T12:54:18;30.9;19.8
78479;SHT31;67769;51.972;5.668;2023-06-04T12:56:48;30.9;19.9
78479;SHT31;67769;51.972;5.668;2023-06-04T12:59:18;30.8;20.1
78479;SHT31;67769;51.972;5.668;2023-06-04T13:01:48;30.8;20.0
78479;SHT31;67769;51.972;5.668;2023-06-04T13:04:17;30.7;20.9
78479;SHT31;67769;51.972;5.668;2023-06-04T13:06:47;30.7;21.3
78479;SHT31;67769;51.972;5.668;2023-06-04T13:09:19;30.6;21.1
78479;SHT31;67769;51.972;5.668;2023-06-04T13:11:52;30.6;20.9
78479;SHT31;67769;51.972;5.668;2023-06-04T13:14:22;30.6;21.0
78479;SHT31;67769;51.972;5.668;2023-06-04T13:16:51;30.5;21.4
78479;SHT31;67769;51.972;5.668;2023-06-04T13:19:21;30.5;21.2
78479;SHT31;67769;51.972;5.668;2023-06-04T13:21:51;30.5;21.1
78479;SHT31;67769;51.972;5.668;2023-06-04T13:24:21;30.4;21.5
78479;SHT31;67769;51.972;5.668;2023-06-04T13:26:50;30.4;21.4
78479;SHT31;67769;51.972;5.668;2023-06-04T13:29:20;30.4;21.3
78479;SHT31;67769;51.972;5.668;2023-06-04T13:31:50;30.3;21.3
78479;SHT31;67769;51.972;5.668;2023-06-04T13:34:20;30.3;21.9
78479;SHT31;67769;51.972;5.668;2023-06-04T13:36:52;30.2;21.5
78479;SHT31;67769;51.972;5.668;2023-06-04T13:39:22;30.2;21.6
78479;SHT31;67769;51.972;5.668;2023-06-04T13:41:52;30.2;22.3
78479;SHT31;67769;51.972;5.668;2023-06-04T13:44:22;30.2;23.0
78479;SHT31;67769;51.972;5.668;2023-06-04T13:46:58;30.1;22.2
78479;SHT31;67769;51.972;5.668;2023-06-04T13:49:28;30.1;22.1
78479;SHT31;67769;51.972;5.668;2023-06-04T13:51:58;30.1;22.4
78479;SHT31;67769;51.972;5.668;2023-06-04T13:54:28;30.1;22.5
78479;SHT31;67769;51.972;5.668;2023-06-04T13:57:01;30.1;21.3
78479;SHT31;67769;51.972;5.668;2023-06-04T13:59:32;30.1;21.5
78479;SHT31;67769;51.972;5.668;2023-06-04T14:02:02;30.1;22.9
78479;SHT31;67769;51.972;5.668;2023-06-04T14:04:31;30.1;22.1
78479;SHT31;67769;51.972;5.668;2023-06-04T14:07:01;30.1;22.0
78479;SHT31;67769;51.972;5.668;2023-06-04T14:09:33;30.1;21.8
78479;SHT31;67769;51.972;5.668;2023-06-04T14:12:03;30.1;21.7
78479;SHT31;67769;51.972;5.668;2023-06-04T14:14:33;30.1;21.5
78479;SHT31;67769;51.972;5.668;2023-06-04T14:17:06;30.1;21.5
78479;SHT31;67769;51.972;5.668;2023-06-04T14:19:35;30.0;21.9
78479;SHT31;67769;51.972;5.668;2023-06-04T14:22:05;30.0;21.8
78479;SHT31;67769;51.972;5.668;2023-06-04T14:24:34;30.0;22.3
78479;SHT31;67769;51.972;5.668;2023-06-04T14:27:04;29.9;21.6
78479;SHT31;67769;51.972;5.668;2023-06-04T14:29:35;29.9;21.7
78479;SHT31;67769;51.972;5.668;2023-06-04T14:32:05;29.8;22.2
78479;SHT31;67769;51.972;5.668;2023-06-04T14:34:35;29.8;22.2
78479;SHT31;67769;51.972;5.668;2023-06-04T14:37:05;29.7;22.4
78479;SHT31;67769;51.972;5.668;2023-06-04T14:39:34;29.6;22.4
78479;SHT31;67769;51.972;5.668;2023-06-04T14:42:05;29.6;22.3
78479;SHT31;67769;51.972;5.668;2023-06-04T14:44:34;29.5;22.4
78479;SHT31;67769;51.972;5.668;2023-06-04T14:47:05;29.5;22.3
78479;SHT31;67769;51.972;5.668;2023-06-04T14:49:35;29.5;22.5
78479;SHT31;67769;51.972;5.668;2023-06-04T14:52:05;29.4;23.1
78479;SHT31;67769;51.972;5.668;2023-06-04T14:54:35;29.4;22.8
78479;SHT31;67769;51.972;5.668;2023-06-04T14:57:05;29.3;22.6
78479;SHT31;67769;51.972;5.668;2023-06-04T14:59:35;29.3;22.8
78479;SHT31;67769;51.972;5.668;2023-06-04T15:02:06;29.3;23.1
78479;SHT31;67769;51.972;5.668;2023-06-04T15:04:36;29.2;23.3
78479;SHT31;67769;51.972;5.668;2023-06-04T15:07:11;29.2;23.0
78479;SHT31;67769;51.972;5.668;2023-06-04T15:09:41;29.1;23.3
78479;SHT31;67769;51.972;5.668;2023-06-04T15:12:11;29.1;23.3
78479;SHT31;67769;51.972;5.668;2023-06-04T15:14:42;29.1;23.5
78479;SHT31;67769;51.972;5.668;2023-06-04T15:17:12;29.0;23.3
78479;SHT31;67769;51.972;5.668;2023-06-04T15:19:42;29.0;23.4
78479;SHT31;67769;51.972;5.668;2023-06-04T15:22:11;29.0;23.3
78479;SHT31;67769;51.972;5.668;2023-06-04T15:24:41;28.9;23.4
78479;SHT31;67769;51.972;5.668;2023-06-04T15:27:10;28.9;23.6
78479;SHT31;67769;51.972;5.668;2023-06-04T15:29:40;28.8;23.4
78479;SHT31;67769;51.972;5.668;2023-06-04T15:32:10;28.8;23.6
78479;SHT31;67769;51.972;5.668;2023-06-04T15:34:40;28.8;23.6
78479;SHT31;67769;51.972;5.668;2023-06-04T15:37:10;28.7;23.9
78479;SHT31;67769;51.972;5.668;2023-06-04T15:39:39;28.7;23.9
78479;SHT31;67769;51.972;5.668;2023-06-04T15:42:10;28.7;23.8
78479;SHT31;67769;51.972;5.668;2023-06-04T15:44:40;28.6;24.0
78479;SHT31;67769;51.972;5.668;2023-06-04T15:47:09;28.6;23.8
78479;SHT31;67769;51.972;5.668;2023-06-04T15:49:39;28.5;24.3
78479;SHT31;67769;51.972;5.668;2023-06-04T15:52:09;28.5;24.1
78479;SHT31;67769;51.972;5.668;2023-06-04T15:54:38;28.5;24.3
78479;SHT31;67769;51.972;5.668;2023-06-04T15:57:08;28.4;23.8
78479;SHT31;67769;51.972;5.668;2023-06-04T15:59:38;28.4;24.0
78479;SHT31;67769;51.972;5.668;2023-06-04T16:02:08;28.3;24.1
78479;SHT31;67769;51.972;5.668;2023-06-04T16:04:37;28.3;24.5
78479;SHT31;67769;51.972;5.668;2023-06-04T16:07:07;28.3;24.3
78479;SHT31;67769;51.972;5.668;2023-06-04T16:09:37;28.2;24.5
78479;SHT31;67769;51.972;5.668;2023-06-04T16:12:07;28.2;24.5
78479;SHT31;67769;51.972;5.668;2023-06-04T16:14:37;28.2;24.5
78479;SHT31;67769;51.972;5.668;2023-06-04T16:17:07;28.2;24.5
78479;SHT31;67769;51.972;5.668;2023-06-04T16:19:37;28.1;24.6
78479;SHT31;67769;51.972;5.668;2023-06-04T16:22:07;28.1;24.5
78479;SHT31;67769;51.972;5.668;2023-06-04T16:24:37;28.1;24.9